sensor_id;sensor_type;location;lat;lon;timestamp;pressure;altitude;pressure_sealevel;temperature;humidity
49877;BME280;35771;48.978;9.294;2023-01-27T08:11:11;99457.59;;;-2.43;100.00
49877;BME280;35771;48.978;9.294;2023-01-27T08:13:38;99444.09;;;-2.40;100.00
49877;BME280;35771;48.978;9.294;2023-01-27T08:16:06;99443.50;;;-2.31;100.00
49877;BME280;35771;48.978;9.294;2023-01-27T08:18:34;99450.63;;;-2.17;100.00
49877;BME280;35771;48.978;9.294;2023-01-27T08:21:02;99463.63;;;-2.13;100.00
49877;BME280;35771;48.978;9.294;2023-01-27T08:23:30;99477.50;;;-1.93;100.00
49877;BME280;35771;48.978;9.294;2023-01-27T08:25:58;99468.56;;;-1.92;100.00
49877;BME280;35771;48.978;9.294;2023-01-27T08:28:28;99444.69;;;-1.93;100.00
49877;BME280;35771;48.978;9.294;2023-01-27T08:31:02;99475.13;;;-1.83;100.00
49877;BME280;35771;48.978;9.294;2023-01-27T08:33:29;99455.34;;;-1.93;100.00
49877;BME280;35771;48.978;9.294;2023-01-27T08:36:00;99473.31;;;-1.83;100.00
49877;BME280;35771;48.978;9.294;2023-01-27T08:38:27;99467.03;;;-1.82;100.00
49877;BME280;35771;48.978;9.294;2023-01-27T08:40:53;99480.31;;;-1.67;100.00
49877;BME280;35771;48.978;9.294;2023-01-27T08:43:20;99463.56;;;-1.69;100.00
49877;BME280;35771;48.978;9.294;2023-01-27T08:45:50;99487.53;;;-1.55;100.00
49877;BME280;35771;48.978;9.294;2023-01-27T08:48:17;99461.63;;;-1.67;100.00
49877;BME280;35771;48.978;9.294;2023-01-27T08:50:43;99464.00;;;-1.63;100.00
49877;BME280;35771;48.978;9.294;2023-01-27T08:53:10;99491.03;;;-1.54;100.00
49877;BME280;35771;48.978;9.294;2023-01-27T08:55:36;99470.97;;;-1.60;100.00
49877;BME280;35771;48.978;9.294;2023-01-27T08:58:03;99485.50;;;-1.51;100.00
49877;BME280;35771;48.978;9.294;2023-01-27T09:00:29;99463.84;;;-1.59;100.00
49877;BME280;35771;48.978;9.294;2023-01-27T09:02:59;99499.75;;;-1.38;100.00
49877;BME280;35771;48.978;9.294;2023-01-27T09:05:26;99477.00;;;-1.44;100.00
49877;BME280;35771;48.978;9.294;2023-01-27T09:07:53;99489.28;;;-1.14;100.00
49877;BME280;35771;48.978;9.294;2023-01-27T09:10:19;99484.19;;;-1.31;100.00
49877;BME280;35771;48.978;9.294;2023-01-27T09:12:46;99454.09;;;-1.33;100.00
49877;BME280;35771;48.978;9.294;2023-01-27T09:15:13;99498.38;;;-1.03;100.00
49877;BME280;35771;48.978;9.294;2023-01-27T09:17:40;99479.16;;;-0.96;100.00
49877;BME280;35771;48.978;9.294;2023-01-27T09:20:09;99462.47;;;-1.12;98.93
49877;BME280;35771;48.978;9.294;2023-01-27T09:22:37;99481.31;;;-1.01;100.00
49877;BME280;35771;48.978;9.294;2023-01-27T09:25:06;99478.31;;;-0.96;100.00
49877;BME280;35771;48.978;9.294;2023-01-27T09:27:33;99488.44;;;-1.01;99.85
49877;BME280;35771;48.978;9.294;2023-01-27T09:29:59;99473.84;;;-0.96;97.23
49877;BME280;35771;48.978;9.294;2023-01-27T09:32:26;99475.72;;;-1.11;97.98
49877;BME280;35771;48.978;9.294;2023-01-27T09:34:52;99461.53;;;-1.11;96.07
49877;BME280;35771;48.978;9.294;2023-01-27T09:37:21;99497.97;;;-0.84;95.34
49877;BME280;35771;48.978;9.294;2023-01-27T09:39:50;99483.88;;;-0.99;96.04
49877;BME280;35771;48.978;9.294;2023-01-27T09:42:33;99468.25;;;-1.05;95.01
49877;BME280;35771;48.978;9.294;2023-01-27T09:45:29;99507.72;;;-0.70;93.92
49877;BME280;35771;48.978;9.294;2023-01-27T09:48:14;99466.97;;;-1.00;95.85
49877;BME280;35771;48.978;9.294;2023-01-27T09:50:51;99471.16;;;-0.83;95.25
49877;BME280;35771;48.978;9.294;2023-01-27T09:53:43;99480.38;;;-0.87;93.98
49877;BME280;35771;48.978;9.294;2023-01-27T09:56:15;99472.84;;;-1.08;96.06
49877;BME280;35771;48.978;9.294;2023-01-27T09:59:02;99497.16;;;-1.12;98.44
49877;BME280;35771;48.978;9.294;2023-01-27T10:01:34;99482.41;;;-1.18;99.73
49877;BME280;35771;48.978;9.294;2023-01-27T10:04:24;99475.31;;;-1.04;100.00
49877;BME280;35771;48.978;9.294;2023-01-27T10:07:15;99498.28;;;-0.89;99.20
49877;BME280;35771;48.978;9.294;2023-01-27T10:10:07;99472.00;;;-1.08;98.48
49877;BME280;35771;48.978;9.294;2023-01-27T10:12:53;99486.34;;;-0.83;97.48
49877;BME280;35771;48.978;9.294;2023-01-27T10:15:34;99501.50;;;-0.71;98.58
49877;BME280;35771;48.978;9.294;2023-01-27T10:18:11;99482.38;;;-1.03;100.00
49877;BME280;35771;48.978;9.294;2023-01-27T10:20:43;99494.25;;;-0.82;100.00
49877;BME280;35771;48.978;9.294;2023-01-27T10:23:21;99472.56;;;-0.90;100.00
49877;BME280;35771;48.978;9.294;2023-01-27T10:25:59;99489.53;;;-0.91;100.00
49877;BME280;35771;48.978;9.294;2023-01-27T10:28:29;99488.91;;;-0.95;100.00
49877;BME280;35771;48.978;9.294;2023-01-27T10:30:59;99512.19;;;-0.71;100.00
49877;BME280;35771;48.978;9.294;2023-01-27T10:33:39;99499.91;;;-0.86;100.00
49877;BME280;35771;48.978;9.294;2023-01-27T10:36:15;99472.47;;;-0.88;100.00
49877;BME280;35771;48.978;9.294;2023-01-27T10:38:46;99483.34;;;-0.92;100.00
49877;BME280;35771;48.978;9.294;2023-01-27T10:41:25;99499.38;;;-0.79;100.00
49877;BME280;35771;48.978;9.294;2023-01-27T10:44:08;99485.28;;;-0.81;100.00
49877;BME280;35771;48.978;9.294;2023-01-27T10:46:45;99497.38;;;-0.62;100.00
49877;BME280;35771;48.978;9.294;2023-01-27T10:49:18;99468.19;;;-0.91;100.00
49877;BME280;35771;48.978;9.294;2023-01-27T10:51:51;99507.59;;;-0.82;100.00
49877;BME280;35771;48.978;9.294;2023-01-27T10:54:22;99479.69;;;-0.91;100.00
49877;BME280;35771;48.978;9.294;2023-01-27T10:56:55;99478.22;;;-0.95;100.00
49877;BME280;35771;48.978;9.294;2023-01-27T10:59:28;99497.16;;;-0.72;100.00
49877;BME280;35771;48.978;9.294;2023-01-27T11:02:00;99490.63;;;-0.81;100.00
49877;BME280;35771;48.978;9.294;2023-01-27T11:04:33;99486.44;;;-0.85;100.00
49877;BME280;35771;48.978;9.294;2023-01-27T11:07:04;99500.13;;;-0.64;100.00
49877;BME280;35771;48.978;9.294;2023-01-27T11:09:33;99511.03;;;-0.67;100.00
49877;BME280;35771;48.978;9.294;2023-01-27T11:12:06;99488.28;;;-0.73;100.00
49877;BME280;35771;48.978;9.294;2023-01-27T11:14:41;99500.03;;;-0.62;100.00
49877;BME280;35771;48.978;9.294;2023-01-27T11:17:14;99483.13;;;-0.76;100.00
49877;BME280;35771;48.978;9.294;2023-01-27T11:19:49;99475.44;;;-0.80;100.00
49877;BME280;35771;48.978;9.294;2023-01-27T11:22:21;99491.41;;;-0.66;100.00
49877;BME280;35771;48.978;9.294;2023-01-27T11:24:54;99477.47;;;-0.71;100.00
49877;BME280;35771;48.978;9.294;2023-01-27T11:27:35;99480.78;;;-0.80;100.00
49877;BME280;35771;48.978;9.294;2023-01-27T11:30:11;99488.47;;;-0.76;100.00
49877;BME280;35771;48.978;9.294;2023-01-27T11:32:47;99504.84;;;-0.67;100.00
49877;BME280;35771;48.978;9.294;2023-01-27T11:35:18;99502.06;;;-0.66;100.00
49877;BME280;35771;48.978;9.294;2023-01-27T11:37:47;99498.75;;;-0.69;100.00
49877;BME280;35771;48.978;9.294;2023-01-27T11:40:17;99492.00;;;-0.88;100.00
49877;BME280;35771;48.978;9.294;2023-01-27T11:42:46;99491.47;;;-0.80;100.00
49877;BME280;35771;48.978;9.294;2023-01-27T11:45:14;99492.63;;;-0.97;100.00
49877;BME280;35771;48.978;9.294;2023-01-27T11:47:42;99490.94;;;-0.85;100.00
49877;BME280;35771;48.978;9.294;2023-01-27T11:50:13;99487.59;;;-0.89;100.00
49877;BME280;35771;48.978;9.294;2023-01-27T11:52:42;99472.78;;;-0.93;100.00
49877;BME280;35771;48.978;9.294;2023-01-27T11:55:19;99487.75;;;-0.78;100.00
49877;BME280;35771;48.978;9.294;2023-01-27T11:57:54;99487.06;;;-0.81;100.00
49877;BME280;35771;48.978;9.294;2023-01-27T12:00:24;99453.31;;;-0.95;100.00
49877;BME280;35771;48.978;9.294;2023-01-27T12:02:53;99490.19;;;-0.75;100.00
49877;BME280;35771;48.978;9.294;2023-01-27T12:05:27;99473.31;;;-1.01;100.00
49877;BME280;35771;48.978;9.294;2023-01-27T12:07:57;99447.47;;;-1.00;100.00
49877;BME280;35771;48.978;9.294;2023-01-27T12:10:28;99466.91;;;-0.73;100.00
49877;BME280;35771;48.978;9.294;2023-01-27T12:12:59;99469.03;;;-0.65;100.00
49877;BME280;35771;48.978;9.294;2023-01-27T12:15:27;99453.78;;;-0.76;100.00
49877;BME280;35771;48.978;9.294;2023-01-27T12:17:56;99458.91;;;-0.73;100.00
49877;BME280;35771;48.978;9.294;2023-01-27T12:20:30;99467.69;;;-0.70;100.00
49877;BME280;35771;48.978;9.294;2023-01-27T12:23:00;99459.88;;;-0.74;100.00
49877;BME280;35771;48.978;9.294;2023-01-27T12:25:31;99438.94;;;-0.80;100.00
49877;BME280;35771;48.978;9.294;2023-01-27T12:28:20;99452.41;;;-0.68;100.00
49877;BME280;35771;48.978;9.294;2023-01-27T12:30:50;99435.22;;;-0.64;100.00
49877;BME280;35771;48.978;9.294;2023-01-27T12:33:22;99446.09;;;-0.67;100.00
49877;BME280;35771;48.978;9.294;2023-01-27T12:35:50;99434.56;;;-0.81;100.00
49877;BME280;35771;48.978;9.294;2023-01-27T12:38:19;99448.44;;;-0.63;100.00
49877;BME280;35771;48.978;9.294;2023-01-27T12:40:47;99425.91;;;-0.72;100.00
49877;BME280;35771;48.978;9.294;2023-01-27T12:43:18;99434.13;;;-0.75;100.00
49877;BME280;35771;48.978;9.294;2023-01-27T12:46:02;99458.38;;;-0.65;100.00
49877;BME280;35771;48.978;9.294;2023-01-27T12:48:30;99452.38;;;-0.81;100.00
49877;BME280;35771;48.978;9.294;2023-01-27T12:51:05;99459.53;;;-0.95;100.00
49877;BME280;35771;48.978;9.294;2023-01-27T12:53:31;99447.34;;;-0.99;100.00
49877;BME280;35771;48.978;9.294;2023-01-27T12:56:00;99450.13;;;-1.00;100.00
49877;BME280;35771;48.978;9.294;2023-01-27T12:58:34;99466.25;;;-0.89;100.00
49877;BME280;35771;48.978;9.294;2023-01-27T13:01:03;99447.47;;;-1.00;100.00
49877;BME280;35771;48.978;9.294;2023-01-27T13:03:33;99435.59;;;-1.09;100.00
49877;BME280;35771;48.978;9.294;2023-01-27T13:06:03;99445.84;;;-1.03;100.00
49877;BME280;35771;48.978;9.294;2023-01-27T13:08:32;99458.25;;;-0.89;100.00
49877;BME280;35771;48.978;9.294;2023-01-27T13:11:01;99461.16;;;-0.66;100.00
49877;BME280;35771;48.978;9.294;2023-01-27T13:13:29;99434.47;;;-0.79;100.00
49877;BME280;35771;48.978;9.294;2023-01-27T13:16:03;99461.16;;;-0.66;99.88
49877;BME280;35771;48.978;9.294;2023-01-27T13:18:33;99465.31;;;-0.75;100.00
49877;BME280;35771;48.978;9.294;2023-01-27T13:21:10;99470.03;;;-0.66;100.00
49877;BME280;35771;48.978;9.294;2023-01-27T13:23:39;99469.81;;;-0.63;100.00
49877;BME280;35771;48.978;9.294;2023-01-27T13:26:11;99450.16;;;-0.75;100.00
49877;BME280;35771;48.978;9.294;2023-01-27T13:28:43;99461.25;;;-0.68;99.71
49877;BME280;35771;48.978;9.294;2023-01-27T13:31:16;99465.75;;;-0.68;98.95
49877;BME280;35771;48.978;9.294;2023-01-27T13:33:46;99437.88;;;-0.90;99.01
49877;BME280;35771;48.978;9.294;2023-01-27T13:36:24;99456.66;;;-0.79;99.52
49877;BME280;35771;48.978;9.294;2023-01-27T13:38:57;99456.88;;;-0.69;99.01
49877;BME280;35771;48.978;9.294;2023-01-27T13:41:30;99468.53;;;-0.57;98.75
49877;BME280;35771;48.978;9.294;2023-01-27T13:44:02;99480.69;;;-0.53;99.42
49877;BME280;35771;48.978;9.294;2023-01-27T13:46:36;99462.34;;;-0.70;100.00
49877;BME280;35771;48.978;9.294;2023-01-27T13:49:13;99452.47;;;-0.83;100.00
49877;BME280;35771;48.978;9.294;2023-01-27T13:51:40;99488.06;;;-0.69;100.00
49877;BME280;35771;48.978;9.294;2023-01-27T13:54:09;99451.00;;;-0.87;100.00
49877;BME280;35771;48.978;9.294;2023-01-27T13:56:48;99462.00;;;-0.79;100.00
49877;BME280;35771;48.978;9.294;2023-01-27T13:59:33;99464.22;;;-0.98;100.00
49877;BME280;35771;48.978;9.294;2023-01-27T14:02:21;99483.25;;;-0.77;100.00
49877;BME280;35771;48.978;9.294;2023-01-27T14:05:01;99496.63;;;-0.64;100.00
49877;BME280;35771;48.978;9.294;2023-01-27T14:07:39;99494.16;;;-0.55;100.00
49877;BME280;35771;48.978;9.294;2023-01-27T14:10:21;99480.50;;;-0.63;100.00
49877;BME280;35771;48.978;9.294;2023-01-27T14:13:01;99516.50;;;-0.56;100.00
49877;BME280;35771;48.978;9.294;2023-01-27T14:15:36;99488.28;;;-0.73;100.00
49877;BME280;35771;48.978;9.294;2023-01-27T14:18:14;99491.81;;;-0.72;100.00
49877;BME280;35771;48.978;9.294;2023-01-27T14:20:57;99485.72;;;-0.61;99.65
49877;BME280;35771;48.978;9.294;2023-01-27T14:23:42;99464.91;;;-0.69;97.99
49877;BME280;35771;48.978;9.294;2023-01-27T14:26:19;99505.63;;;-0.52;99.10
49877;BME280;35771;48.978;9.294;2023-01-27T14:29:00;99493.22;;;-0.54;99.61
49877;BME280;35771;48.978;9.294;2023-01-27T14:31:38;99469.47;;;-0.71;100.00
49877;BME280;35771;48.978;9.294;2023-01-27T14:34:30;99484.44;;;-0.68;100.00
49877;BME280;35771;48.978;9.294;2023-01-27T14:37:10;99479.84;;;-0.79;100.00
49877;BME280;35771;48.978;9.294;2023-01-27T14:39:46;99469.78;;;-0.76;100.00
49877;BME280;35771;48.978;9.294;2023-01-27T14:42:23;99474.50;;;-0.66;100.00
49877;BME280;35771;48.978;9.294;2023-01-27T14:44:57;99476.00;;;-0.62;100.00
49877;BME280;35771;48.978;9.294;2023-01-27T14:47:32;99505.50;;;-0.51;99.05
49877;BME280;35771;48.978;9.294;2023-01-27T14:50:15;99481.88;;;-0.70;100.00
49877;BME280;35771;48.978;9.294;2023-01-27T14:52:50;99509.53;;;-0.45;100.00
49877;BME280;35771;48.978;9.294;2023-01-27T14:55:29;99479.31;;;-0.72;100.00
49877;BME280;35771;48.978;9.294;2023-01-27T14:58:07;99481.25;;;-0.48;99.33
49877;BME280;35771;48.978;9.294;2023-01-27T15:00:44;99473.03;;;-0.45;97.30
49877;BME280;35771;48.978;9.294;2023-01-27T15:03:35;99488.38;;;-0.48;97.85
49877;BME280;35771;48.978;9.294;2023-01-27T15:06:13;99490.53;;;-0.41;98.63
49877;BME280;35771;48.978;9.294;2023-01-27T15:08:48;99459.13;;;-0.50;98.56
49877;BME280;35771;48.978;9.294;2023-01-27T15:11:28;99487.22;;;-0.44;98.55
49877;BME280;35771;48.978;9.294;2023-01-27T15:14:12;99517.47;;;-0.31;97.51
49877;BME280;35771;48.978;9.294;2023-01-27T15:17:10;99486.81;;;-0.51;98.63
49877;BME280;35771;48.978;9.294;2023-01-27T15:19:58;99485.31;;;-0.55;98.91
49877;BME280;35771;48.978;9.294;2023-01-27T15:22:46;99479.44;;;-0.60;99.82
49877;BME280;35771;48.978;9.294;2023-01-27T15:25:28;99505.50;;;-0.38;99.60
49877;BME280;35771;48.978;9.294;2023-01-27T15:27:58;99507.09;;;-0.36;98.92
49877;BME280;35771;48.978;9.294;2023-01-27T15:30:30;99489.25;;;-0.48;99.71
49877;BME280;35771;48.978;9.294;2023-01-27T15:32:58;99494.38;;;-0.58;100.00
49877;BME280;35771;48.978;9.294;2023-01-27T15:35:36;99496.41;;;-0.48;100.00
49877;BME280;35771;48.978;9.294;2023-01-27T15:38:32;99506.88;;;-0.45;100.00
49877;BME280;35771;48.978;9.294;2023-01-27T15:41:06;99495.34;;;-0.46;100.00
49877;BME280;35771;48.978;9.294;2023-01-27T15:43:37;99510.00;;;-0.39;99.18
49877;BME280;35771;48.978;9.294;2023-01-27T15:46:31;99509.16;;;-0.39;99.87
49877;BME280;35771;48.978;9.294;2023-01-27T15:48:59;99528.06;;;-0.29;99.70
49877;BME280;35771;48.978;9.294;2023-01-27T15:51:30;99514.28;;;-0.36;99.80
49877;BME280;35771;48.978;9.294;2023-01-27T15:54:01;99507.41;;;-0.66;100.00
49877;BME280;35771;48.978;9.294;2023-01-27T15:56:44;99508.03;;;-0.75;100.00
49877;BME280;35771;48.978;9.294;2023-01-27T15:59:15;99523.75;;;-0.58;100.00
49877;BME280;35771;48.978;9.294;2023-01-27T16:01:43;99504.28;;;-0.73;100.00
49877;BME280;35771;48.978;9.294;2023-01-27T16:04:14;99532.09;;;-0.49;100.00
49877;BME280;35771;48.978;9.294;2023-01-27T16:06:48;99535.94;;;-0.54;100.00
49877;BME280;35771;48.978;9.294;2023-01-27T16:09:30;99540.13;;;-0.49;100.00
49877;BME280;35771;48.978;9.294;2023-01-27T16:12:01;99539.25;;;-0.63;100.00
49877;BME280;35771;48.978;9.294;2023-01-27T16:14:43;99556.97;;;-0.62;100.00
49877;BME280;35771;48.978;9.294;2023-01-27T16:17:31;99532.50;;;-0.68;100.00
49877;BME280;35771;48.978;9.294;2023-01-27T16:20:18;99555.06;;;-0.60;100.00
49877;BME280;35771;48.978;9.294;2023-01-27T16:22:51;99541.47;;;-0.69;100.00
49877;BME280;35771;48.978;9.294;2023-01-27T16:25:27;99576.53;;;-0.48;100.00
49877;BME280;35771;48.978;9.294;2023-01-27T16:27:59;99569.28;;;-0.46;100.00
49877;BME280;35771;48.978;9.294;2023-01-27T16:30:30;99557.28;;;-0.66;100.00
49877;BME280;35771;48.978;9.294;2023-01-27T16:33:05;99542.53;;;-0.72;100.00
49877;BME280;35771;48.978;9.294;2023-01-27T16:35:39;99554.75;;;-0.55;100.00
49877;BME280;35771;48.978;9.294;2023-01-27T16:38:18;99540.09;;;-0.62;100.00
49877;BME280;35771;48.978;9.294;2023-01-27T16:40:50;99550.97;;;-0.65;100.00
49877;BME280;35771;48.978;9.294;2023-01-27T16:43:22;99574.28;;;-0.55;100.00
49877;BME280;35771;48.978;9.294;2023-01-27T16:45:51;99539.22;;;-0.76;100.00
49877;BME280;35771;48.978;9.294;2023-01-27T16:48:26;99547.38;;;-0.64;100.00
49877;BME280;35771;48.978;9.294;2023-01-27T16:50:54;99557.28;;;-0.66;100.00
49877;BME280;35771;48.978;9.294;2023-01-27T16:53:31;99578.56;;;-0.52;100.00
49877;BME280;35771;48.978;9.294;2023-01-27T16:56:01;99563.50;;;-0.66;100.00
49877;BME280;35771;48.978;9.294;2023-01-27T16:58:29;99554.50;;;-0.65;100.00
49877;BME280;35771;48.978;9.294;2023-01-27T17:00:57;99541.66;;;-0.73;100.00
49877;BME280;35771;48.978;9.294;2023-01-27T17:03:30;99563.06;;;-0.60;100.00
49877;BME280;35771;48.978;9.294;2023-01-27T17:06:00;99553.13;;;-0.70;100.00
49877;BME280;35771;48.978;9.294;2023-01-27T17:08:28;99573.44;;;-0.55;100.00
49877;BME280;35771;48.978;9.294;2023-01-27T17:11:16;99589.88;;;-0.48;100.00
49877;BME280;35771;48.978;9.294;2023-01-27T17:13:44;99549.81;;;-0.61;100.00
49877;BME280;35771;48.978;9.294;2023-01-27T17:16:19;99577.41;;;-0.48;100.00
49877;BME280;35771;48.978;9.294;2023-01-27T17:18:47;99555.06;;;-0.60;100.00
49877;BME280;35771;48.978;9.294;2023-01-27T17:21:24;99554.38;;;-0.63;100.00
49877;BME280;35771;48.978;9.294;2023-01-27T17:23:54;99565.63;;;-0.58;100.00
49877;BME280;35771;48.978;9.294;2023-01-27T17:26:26;99556.44;;;-0.67;100.00
49877;BME280;35771;48.978;9.294;2023-01-27T17:28:53;99544.59;;;-0.63;100.00
49877;BME280;35771;48.978;9.294;2023-01-27T17:31:21;99548.22;;;-0.64;100.00
49877;BME280;35771;48.978;9.294;2023-01-27T17:33:49;99570.56;;;-0.52;100.00
49877;BME280;35771;48.978;9.294;2023-01-27T17:36:18;99578.16;;;-0.46;100.00
49877;BME280;35771;48.978;9.294;2023-01-27T17:38:46;99571.41;;;-0.51;100.00
49877;BME280;35771;48.978;9.294;2023-01-27T17:41:32;99563.19;;;-0.61;100.00
49877;BME280;35771;48.978;9.294;2023-01-27T17:44:00;99581.47;;;-0.42;100.00
49877;BME280;35771;48.978;9.294;2023-01-27T17:46:29;99572.50;;;-0.54;100.00
49877;BME280;35771;48.978;9.294;2023-01-27T17:48:58;99594.53;;;-0.38;100.00
49877;BME280;35771;48.978;9.294;2023-01-27T17:51:27;99588.19;;;-0.37;100.00
49877;BME280;35771;48.978;9.294;2023-01-27T17:53:58;99593.22;;;-0.45;100.00
49877;BME280;35771;48.978;9.294;2023-01-27T17:56:28;99598.88;;;-0.49;100.00
49877;BME280;35771;48.978;9.294;2023-01-27T17:58:59;99592.66;;;-0.50;100.00
49877;BME280;35771;48.978;9.294;2023-01-27T18:01:27;99588.50;;;-0.54;100.00
49877;BME280;35771;48.978;9.294;2023-01-27T18:03:56;99589.16;;;-0.50;100.00
49877;BME280;35771;48.978;9.294;2023-01-27T18:06:25;99567.56;;;-0.60;100.00
49877;BME280;35771;48.978;9.294;2023-01-27T18:08:54;99566.59;;;-0.59;100.00
49877;BME280;35771;48.978;9.294;2023-01-27T18:11:28;99568.41;;;-0.60;100.00
49877;BME280;35771;48.978;9.294;2023-01-27T18:14:06;99590.53;;;-0.58;100.00
49877;BME280;35771;48.978;9.294;2023-01-27T18:16:34;99592.97;;;-0.55;100.00
49877;BME280;35771;48.978;9.294;2023-01-27T18:19:07;99593.44;;;-0.48;100.00
49877;BME280;35771;48.978;9.294;2023-01-27T18:21:43;99587.94;;;-0.59;100.00
49877;BME280;35771;48.978;9.294;2023-01-27T18:24:18;99590.31;;;-0.55;100.00
49877;BME280;35771;48.978;9.294;2023-01-27T18:26:47;99607.63;;;-0.47;100.00
49877;BME280;35771;48.978;9.294;2023-01-27T18:29:18;99576.63;;;-0.63;100.00
49877;BME280;35771;48.978;9.294;2023-01-27T18:31:48;99584.75;;;-0.64;100.00
49877;BME280;35771;48.978;9.294;2023-01-27T18:34:23;99592.03;;;-0.54;100.00
49877;BME280;35771;48.978;9.294;2023-01-27T18:36:53;99607.75;;;-0.49;100.00
49877;BME280;35771;48.978;9.294;2023-01-27T18:39:33;99601.75;;;-0.52;100.00
49877;BME280;35771;48.978;9.294;2023-01-27T18:42:04;99612.13;;;-0.48;100.00
49877;BME280;35771;48.978;9.294;2023-01-27T18:44:35;99601.97;;;-0.43;100.00
49877;BME280;35771;48.978;9.294;2023-01-27T18:47:22;99617.91;;;-0.41;100.00
49877;BME280;35771;48.978;9.294;2023-01-27T18:49:53;99584.75;;;-0.64;100.00
49877;BME280;35771;48.978;9.294;2023-01-27T18:52:22;99616.41;;;-0.45;100.00
49877;BME280;35771;48.978;9.294;2023-01-27T18:54:52;99600.03;;;-0.54;100.00
49877;BME280;35771;48.978;9.294;2023-01-27T18:57:21;99602.81;;;-0.55;100.00
49877;BME280;35771;48.978;9.294;2023-01-27T18:59:47;99607.31;;;-0.56;100.00
49877;BME280;35771;48.978;9.294;2023-01-27T19:02:14;99617.00;;;-0.55;100.00
49877;BME280;35771;48.978;9.294;2023-01-27T19:04:41;99608.38;;;-0.45;100.00
49877;BME280;35771;48.978;9.294;2023-01-27T19:07:12;99585.19;;;-0.58;100.00
49877;BME280;35771;48.978;9.294;2023-01-27T19:09:40;99613.09;;;-0.49;100.00
49877;BME280;35771;48.978;9.294;2023-01-27T19:12:06;99609.00;;;-0.55;100.00
49877;BME280;35771;48.978;9.294;2023-01-27T19:14:34;99613.19;;;-0.50;100.00
49877;BME280;35771;48.978;9.294;2023-01-27T19:17:01;99584.84;;;-0.66;100.00
49877;BME280;35771;48.978;9.294;2023-01-27T19:19:28;99611.88;;;-0.58;100.00
49877;BME280;35771;48.978;9.294;2023-01-27T19:21:55;99633.41;;;-0.46;100.00
49877;BME280;35771;48.978;9.294;2023-01-27T19:24:22;99621.63;;;-0.57;100.00
49877;BME280;35771;48.978;9.294;2023-01-27T19:26:48;99609.84;;;-0.67;100.00
49877;BME280;35771;48.978;9.294;2023-01-27T19:29:15;99600.22;;;-0.69;100.00
49877;BME280;35771;48.978;9.294;2023-01-27T19:31:43;99609.94;;;-0.68;100.00
49877;BME280;35771;48.978;9.294;2023-01-27T19:34:09;99609.94;;;-0.68;100.00
49877;BME280;35771;48.978;9.294;2023-01-27T19:36:40;99630.28;;;-0.53;100.00
49877;BME280;35771;48.978;9.294;2023-01-27T19:39:11;99598.63;;;-0.72;100.00
49877;BME280;35771;48.978;9.294;2023-01-27T19:41:38;99604.91;;;-0.73;100.00
49877;BME280;35771;48.978;9.294;2023-01-27T19:44:05;99628.56;;;-0.54;100.00
49877;BME280;35771;48.978;9.294;2023-01-27T19:46:33;99638.94;;;-0.49;100.00
49877;BME280;35771;48.978;9.294;2023-01-27T19:49:01;99616.91;;;-0.66;100.00
49877;BME280;35771;48.978;9.294;2023-01-27T19:51:29;99610.72;;;-0.54;100.00
49877;BME280;35771;48.978;9.294;2023-01-27T19:53:55;99614.13;;;-0.51;100.00
49877;BME280;35771;48.978;9.294;2023-01-27T19:56:23;99618.69;;;-0.66;100.00
49877;BME280;35771;48.978;9.294;2023-01-27T19:58:51;99642.34;;;-0.60;100.00
49877;BME280;35771;48.978;9.294;2023-01-27T20:01:18;99643.63;;;-0.53;100.00
49877;BME280;35771;48.978;9.294;2023-01-27T20:03:45;99646.97;;;-0.49;100.00
49877;BME280;35771;48.978;9.294;2023-01-27T20:06:16;99631.88;;;-0.50;100.00
49877;BME280;35771;48.978;9.294;2023-01-27T20:08:43;99620.31;;;-0.64;100.00
49877;BME280;35771;48.978;9.294;2023-01-27T20:11:28;99643.81;;;-0.56;100.00
49877;BME280;35771;48.978;9.294;2023-01-27T20:13:56;99651.75;;;-0.55;100.00
49877;BME280;35771;48.978;9.294;2023-01-27T20:16:23;99628.53;;;-0.67;100.00
49877;BME280;35771;48.978;9.294;2023-01-27T20:18:50;99625.75;;;-0.65;100.00
49877;BME280;35771;48.978;9.294;2023-01-27T20:21:19;99639.84;;;-0.63;100.00
49877;BME280;35771;48.978;9.294;2023-01-27T20:23:45;99650.38;;;-0.47;100.00
49877;BME280;35771;48.978;9.294;2023-01-27T20:26:14;99650.59;;;-0.50;100.00
49877;BME280;35771;48.978;9.294;2023-01-27T20:28:40;99652.94;;;-0.46;100.00
49877;BME280;35771;48.978;9.294;2023-01-27T20:31:09;99643.50;;;-0.64;100.00
49877;BME280;35771;48.978;9.294;2023-01-27T20:33:36;99637.06;;;-0.75;100.00
49877;BME280;35771;48.978;9.294;2023-01-27T20:36:04;99680.81;;;-0.50;100.00
49877;BME280;35771;48.978;9.294;2023-01-27T20:38:32;99671.94;;;-0.50;100.00
49877;BME280;35771;48.978;9.294;2023-01-27T20:41:04;99640.63;;;-0.61;100.00
49877;BME280;35771;48.978;9.294;2023-01-27T20:43:30;99653.78;;;-0.58;100.00
49877;BME280;35771;48.978;9.294;2023-01-27T20:46:01;99641.06;;;-0.55;100.00
49877;BME280;35771;48.978;9.294;2023-01-27T20:48:27;99670.19;;;-0.37;100.00
49877;BME280;35771;48.978;9.294;2023-01-27T20:50:56;99659.09;;;-0.58;100.00
49877;BME280;35771;48.978;9.294;2023-01-27T20:53:23;99648.84;;;-0.64;100.00
49877;BME280;35771;48.978;9.294;2023-01-27T20:55:53;99654.50;;;-0.56;100.00
49877;BME280;35771;48.978;9.294;2023-01-27T20:58:21;99643.09;;;-0.58;100.00
49877;BME280;35771;48.978;9.294;2023-01-27T21:00:48;99661.78;;;-0.58;100.00
49877;BME280;35771;48.978;9.294;2023-01-27T21:03:14;99686.16;;;-0.50;100.00
49877;BME280;35771;48.978;9.294;2023-01-27T21:05:41;99659.63;;;-0.66;100.00
49877;BME280;35771;48.978;9.294;2023-01-27T21:08:10;99655.13;;;-0.65;100.00
49877;BME280;35771;48.978;9.294;2023-01-27T21:10:36;99648.75;;;-0.63;100.00
49877;BME280;35771;48.978;9.294;2023-01-27T21:13:04;99675.53;;;-0.37;100.00
49877;BME280;35771;48.978;9.294;2023-01-27T21:15:31;99675.97;;;-0.58;100.00
49877;BME280;35771;48.978;9.294;2023-01-27T21:17:57;99672.47;;;-0.58;100.00
49877;BME280;35771;48.978;9.294;2023-01-27T21:20:25;99672.78;;;-0.50;100.00
49877;BME280;35771;48.978;9.294;2023-01-27T21:22:51;99672.50;;;-0.45;100.00
49877;BME280;35771;48.978;9.294;2023-01-27T21:25:18;99688.88;;;-0.37;100.00
49877;BME280;35771;48.978;9.294;2023-01-27T21:27:46;99676.56;;;-0.40;100.00
49877;BME280;35771;48.978;9.294;2023-01-27T21:30:15;99690.41;;;-0.33;100.00